Time;durP1;ratioP1;P1;durP2;ratioP2;P2;SDS_P1;SDS_P2;PMS_P1;PMS_P2;Temp;Humidity;BMP_temperature;BMP_pressure;BME280_temperature;BME280_humidity;BME280_pressure;Samples;Min_cycle;Max_cycle;Signal;HPM_P1;HPM_P2
2023/06/20 00:00:08;;;;;;;7.07;5.28;;;22.10;99.90;;;-144.05;48.32;56889.19;5014823;28;20189;-80
2023/06/20 00:02:34;;;;;;;9.45;5.68;;;22.00;99.90;;;-144.05;48.49;56882.81;5015868;28;20078;-78
2023/06/20 00:05:02;;;;;;;9.18;5.35;;;22.00;99.90;;;-144.05;48.42;56859.47;5008687;28;20030;-80
2023/06/20 00:07:28;;;;;;;6.25;5.07;;;22.00;99.90;;;-144.05;48.51;56884.94;5002822;28;20060;-81
2023/06/20 00:09:54;;;;;;;9.13;5.75;;;22.00;99.90;;;-144.05;48.98;56861.56;5000951;28;20492;-80
2023/06/20 00:12:20;;;;;;;9.57;5.47;;;21.90;99.90;;;-144.05;48.94;56882.81;5002795;28;20022;-81
2023/06/20 00:14:46;;;;;;;7.97;5.07;;;21.90;99.90;;;-144.05;49.32;56861.56;5001776;28;20480;-82
2023/06/20 00:17:13;;;;;;;7.80;4.68;;;21.80;99.90;;;-144.05;49.61;56872.19;5001840;28;20018;-80
2023/06/20 00:19:41;;;;;;;8.25;5.10;;;21.80;99.90;;;-144.05;49.65;56844.59;4999653;28;20426;-80
2023/06/20 00:22:07;;;;;;;10.63;5.85;;;21.70;99.90;;;-144.05;49.89;56859.47;5015132;28;20069;-78
2023/06/20 00:24:33;;;;;;;9.95;5.95;;;21.70;99.90;;;-144.05;49.81;56865.81;4999662;28;20504;-79
2023/06/20 00:27:03;;;;;;;7.85;5.68;;;21.60;99.90;;;-144.05;50.00;56853.09;4999777;28;20057;-80
2023/06/20 00:29:29;;;;;;;7.20;5.18;;;21.60;99.90;;;-144.05;50.17;56887.06;4998036;28;20061;-78
2023/06/20 00:31:55;;;;;;;7.07;5.55;;;21.60;99.90;;;-144.05;50.50;56848.84;4998418;28;20060;-81
2023/06/20 00:34:22;;;;;;;8.35;5.63;;;21.50;99.90;;;-144.05;50.70;56853.09;4999110;28;20030;-78
2023/06/20 00:36:47;;;;;;;8.00;5.28;;;21.50;99.90;;;-144.05;51.26;56842.47;4997405;28;20026;-80
2023/06/20 00:39:13;;;;;;;9.68;6.53;;;21.40;99.90;;;-144.05;51.32;56842.47;4995508;28;20488;-79
2023/06/20 00:41:39;;;;;;;8.60;6.85;;;21.40;99.90;;;-144.05;51.38;56867.94;4996749;28;20534;-77
2023/06/20 00:44:05;;;;;;;11.30;6.90;;;21.30;99.90;;;-144.05;51.55;56882.81;5011255;28;20088;-80
2023/06/20 00:46:37;;;;;;;9.23;6.03;;;21.30;99.90;;;-144.05;51.64;56842.47;5011767;28;20023;-78
2023/06/20 00:49:07;;;;;;;10.52;6.78;;;21.20;99.90;;;-144.05;52.16;56861.56;5010236;28;20023;-80
2023/06/20 00:51:37;;;;;;;7.97;6.65;;;21.20;99.90;;;-144.05;52.24;56831.84;4995741;28;20023;-80
2023/06/20 00:54:03;;;;;;;14.05;6.13;;;21.10;99.90;;;-144.05;52.10;56855.22;4995872;28;20027;-81
2023/06/20 00:56:30;;;;;;;9.23;6.03;;;21.10;99.90;;;-144.05;52.43;56846.72;4996219;28;20030;-78
2023/06/20 00:58:56;;;;;;;12.23;6.68;;;21.10;99.90;;;-144.05;52.55;56846.72;4995969;28;20039;-79
2023/06/20 01:01:22;;;;;;;9.80;6.80;;;21.00;99.90;;;-144.05;52.65;56853.09;4995793;28;20035;-78
2023/06/20 01:03:52;;;;;;;8.45;6.60;;;21.00;99.90;;;-144.05;52.67;56870.06;4999628;28;20022;-80
2023/06/20 01:06:41;;;;;;;8.82;6.70;;;21.00;99.90;;;-144.05;52.70;56848.84;4997261;28;20053;-80
2023/06/20 01:10:04;;;;;;;9.43;5.38;;;21.00;99.90;;;-144.05;52.75;56855.22;4997454;28;20423;-80
2023/06/20 01:13:02;;;;;;;10.30;7.38;;;21.00;99.90;;;-144.05;52.81;56857.34;4998936;28;20480;-78
2023/06/20 01:15:53;;;;;;;10.35;7.10;;;21.00;99.90;;;-144.05;52.80;56859.47;4996470;28;20049;-78
2023/06/20 01:19:00;;;;;;;12.05;7.28;;;21.00;99.90;;;-144.05;52.72;56838.22;4995983;28;20026;-80
2023/06/20 01:21:37;;;;;;;10.18;7.50;;;21.10;99.90;;;-144.05;52.72;56857.34;5012301;28;20041;-78
2023/06/20 01:24:25;;;;;;;10.70;7.28;;;21.10;99.90;;;-144.05;53.00;56863.69;5012616;28;20069;-79
2023/06/20 01:27:15;;;;;;;10.32;7.45;;;21.10;99.90;;;-144.05;52.81;56863.69;4997977;28;20431;-80
2023/06/20 01:29:59;;;;;;;11.00;7.22;;;21.00;99.90;;;-144.05;52.91;56848.84;4998229;28;20026;-79
2023/06/20 01:32:30;;;;;;;10.43;7.32;;;21.10;99.90;;;-144.05;53.20;56850.97;4998024;28;20084;-79
2023/06/20 01:35:12;;;;;;;12.50;8.40;;;21.00;99.90;;;-144.05;53.18;56844.59;4996483;28;20034;-79
2023/06/20 01:37:43;;;;;;;12.32;7.78;;;21.00;99.90;;;-144.05;53.49;56859.47;4997852;28;20062;-78
2023/06/20 01:40:18;;;;;;;10.23;7.13;;;21.00;99.90;;;-144.05;53.53;56848.84;5012021;28;20030;-79
2023/06/20 01:42:46;;;;;;;10.07;8.02;;;21.00;99.90;;;-144.05;53.65;56865.81;5011347;28;20381;-79
2023/06/20 01:45:18;;;;;;;10.43;6.85;;;20.90;99.90;;;-144.05;53.85;56867.94;5011966;28;20085;-78
2023/06/20 01:47:50;;;;;;;11.82;7.10;;;20.90;99.90;;;-144.05;54.09;56857.34;4995670;28;20465;-81
2023/06/20 01:50:19;;;;;;;8.40;7.00;;;20.90;99.90;;;-144.05;53.92;56848.84;4997048;28;20073;-78
2023/06/20 01:52:48;;;;;;;10.18;6.97;;;20.90;99.90;;;-144.05;53.98;56848.84;4994867;28;20030;-78
2023/06/20 01:55:20;;;;;;;10.52;7.65;;;20.90;99.90;;;-144.05;53.96;56857.34;4997155;28;20368;-79
2023/06/20 01:57:48;;;;;;;9.50;6.88;;;20.90;99.90;;;-144.05;54.09;56853.09;5012283;28;20042;-79
2023/06/20 02:00:17;;;;;;;11.35;7.75;;;20.80;99.90;;;-144.05;54.24;56867.94;4996558;28;20066;-80
2023/06/20 02:02:46;;;;;;;8.85;7.18;;;20.80;99.90;;;-144.05;54.00;56859.47;4997620;28;20030;-79
2023/06/20 02:05:16;;;;;;;10.88;7.15;;;20.90;99.90;;;-144.05;53.93;56840.34;4997401;28;20049;-80
2023/06/20 02:07:46;;;;;;;12.63;7.05;;;20.90;99.90;;;-144.05;54.10;56857.34;4997258;28;20022;-78
2023/06/20 02:10:15;;;;;;;10.38;6.78;;;20.90;99.90;;;-144.05;54.30;56857.34;4996917;28;20113;-77
2023/06/20 02:12:44;;;;;;;20.65;8.80;;;20.90;99.90;;;-144.05;57.03;56846.72;4994383;28;20486;-82
2023/06/20 02:15:12;;;;;;;14.00;6.90;;;20.90;99.90;;;-144.05;61.31;56846.72;5011965;28;20034;-82
2023/06/20 02:17:40;;;;;;;11.55;6.80;;;20.60;99.90;;;-144.05;63.81;56842.47;5012317;28;20511;-83
2023/06/20 02:20:07;;;;;;;11.75;7.55;;;20.30;99.90;;;-144.05;65.58;56848.84;5001485;28;20034;-82
2023/06/20 02:22:36;;;;;;;13.50;8.18;;;19.90;99.90;;;-144.05;67.16;56831.84;5013550;28;20045;-86
2023/06/20 02:25:11;;;;;;;13.77;8.75;;;19.70;99.90;;;-144.05;68.45;56833.97;4997354;28;20030;-82
2023/06/20 02:27:42;;;;;;;14.65;8.25;;;19.50;99.90;;;-144.05;71.22;56833.97;4995454;28;20069;-85
2023/06/20 02:30:12;;;;;;;11.98;8.73;;;19.40;99.90;;;-144.05;73.64;56853.09;5010493;28;20053;-81
2023/06/20 02:32:42;;;;;;;10.45;8.05;;;19.30;99.90;;;-144.05;75.42;56840.34;5010065;28;20118;-83
2023/06/20 02:35:13;;;;;;;13.15;8.50;;;19.20;99.90;;;-144.05;76.40;56840.34;4994266;28;20527;-81
2023/06/20 02:37:43;;;;;;;12.00;7.68;;;19.10;99.90;;;-144.05;77.41;56842.47;5010019;28;20117;-83
2023/06/20 02:40:10;;;;;;;13.23;8.27;;;19.00;99.90;;;-144.05;78.54;56827.59;4996057;28;20116;-84
2023/06/20 02:42:36;;;;;;;12.63;8.15;;;19.00;99.90;;;-144.05;80.01;56836.09;4996187;28;20101;-85
2023/06/20 02:45:03;;;;;;;14.55;9.25;;;18.90;99.90;;;-144.05;81.71;56836.09;5011314;28;20400;-85
2023/06/20 02:48:29;;;;;;;13.57;9.77;;;18.80;99.90;;;-144.05;82.82;56812.72;5011197;28;20077;-82
2023/06/20 02:51:33;;;;;;;14.25;9.70;;;18.80;99.90;;;-144.05;84.38;56831.84;4996492;28;20113;-82
2023/06/20 02:54:25;;;;;;;12.38;9.82;;;18.70;99.90;;;-144.05;85.68;56842.47;4995996;28;20034;-84
2023/06/20 02:56:57;;;;;;;17.10;11.35;;;18.80;99.90;;;-144.05;86.69;56831.84;5011778;28;20583;-84
2023/06/20 02:59:31;;;;;;;11.82;9.68;;;18.80;99.90;;;-144.05;86.97;56838.22;4994149;28;20026;-83
2023/06/20 03:02:06;;;;;;;15.48;11.02;;;18.80;99.90;;;-144.05;87.64;56831.84;4994413;28;20117;-81
2023/06/20 03:04:34;;;;;;;19.55;11.82;;;18.80;99.90;;;-144.05;88.30;56838.22;4996558;28;20135;-83
2023/06/20 03:07:06;;;;;;;21.40;11.75;;;18.80;99.90;;;-144.05;88.54;56831.84;4993909;28;20560;-84
2023/06/20 03:09:37;;;;;;;16.58;12.90;;;18.80;99.90;;;-144.05;88.97;56846.72;4993291;28;20033;-84
2023/06/20 03:12:05;;;;;;;13.10;11.40;;;18.80;99.90;;;-144.05;89.55;56827.59;4994385;28;20032;-81
2023/06/20 03:14:31;;;;;;;14.30;12.80;;;18.90;99.90;;;-144.05;90.01;56823.34;4993312;28;20030;-83
2023/06/20 03:16:57;;;;;;;16.83;13.13;;;18.90;99.90;;;-144.05;90.16;56838.22;4993089;28;20113;-83
2023/06/20 03:19:23;;;;;;;17.83;14.02;;;18.90;99.90;;;-144.05;90.19;56819.09;4992767;28;20046;-84
2023/06/20 03:21:49;;;;;;;15.90;14.07;;;18.80;99.90;;;-144.05;89.18;56829.72;4994138;28;20184;-84
2023/06/20 03:24:15;;;;;;;14.48;12.63;;;18.80;99.90;;;-144.05;87.63;56848.84;4992836;28;20026;-83
2023/06/20 03:26:41;;;;;;;14.02;12.52;;;18.80;99.90;;;-144.05;86.53;56827.59;5009344;28;20022;-84
2023/06/20 03:29:07;;;;;;;17.90;11.32;;;18.70;99.90;;;-144.05;85.21;56838.22;4991885;28;20037;-83
2023/06/20 03:31:33;;;;;;;11.75;10.48;;;18.70;99.90;;;-144.05;83.88;56836.09;4994937;28;20399;-82
2023/06/20 03:33:58;;;;;;;13.68;11.48;;;18.80;99.90;;;-144.05;83.92;56842.47;4999601;28;20062;-83
2023/06/20 03:36:24;;;;;;;14.20;10.13;;;18.90;99.90;;;-144.05;84.39;56844.59;4994544;28;20058;-82
2023/06/20 03:38:50;;;;;;;13.50;11.57;;;18.90;99.90;;;-144.05;84.61;56836.09;4991353;28;20176;-83
2023/06/20 03:41:16;;;;;;;14.68;12.20;;;18.90;99.90;;;-144.05;86.13;56829.72;4991441;28;20034;-84
2023/06/20 03:43:42;;;;;;;13.95;12.38;;;18.90;99.90;;;-144.05;85.53;56842.47;4991323;28;20030;-84
2023/06/20 03:46:07;;;;;;;12.73;11.43;;;18.90;99.90;;;-144.05;85.67;56799.97;4993204;28;20464;-84
2023/06/20 03:48:33;;;;;;;13.05;11.55;;;18.90;99.90;;;-144.05;86.19;56833.97;4991826;28;20027;-82
2023/06/20 03:50:59;;;;;;;13.68;10.75;;;18.90;99.90;;;-144.05;86.62;56842.47;4994648;28;20027;-87
2023/06/20 03:53:25;;;;;;;15.13;12.10;;;18.90;99.90;;;-144.05;86.63;56840.34;4996193;28;20418;-82
2023/06/20 03:55:51;;;;;;;12.43;10.18;;;18.90;99.90;;;-144.05;85.77;56836.09;4994509;28;20026;-85
2023/06/20 03:58:16;;;;;;;12.07;10.80;;;18.90;99.90;;;-144.05;85.80;56823.34;4993870;28;20065;-81
2023/06/20 04:00:42;;;;;;;11.18;10.05;;;18.90;99.90;;;-144.05;84.52;56827.59;4994951;28;20084;-86
2023/06/20 04:03:09;;;;;;;12.25;9.65;;;18.90;99.90;;;-144.05;84.57;56846.72;4995575;28;20031;-85
2023/06/20 04:05:34;;;;;;;12.45;9.75;;;18.90;99.90;;;-144.05;84.73;56831.84;4996572;28;20022;-83
2023/06/20 04:08:01;;;;;;;12.77;10.55;;;18.90;99.90;;;-144.05;85.12;56840.34;4998687;28;20030;-83
2023/06/20 04:10:27;;;;;;;14.32;11.75;;;18.90;99.90;;;-144.05;86.09;56865.81;4996386;28;20030;-86
2023/06/20 04:12:53;;;;;;;14.10;12.48;;;19.00;99.90;;;-144.05;85.87;56840.34;4997692;28;20022;-86
2023/06/20 04:15:19;;;;;;;12.90;11.50;;;19.00;99.90;;;-144.05;86.30;56833.97;4996338;28;20033;-85
2023/06/20 04:17:45;;;;;;;14.23;12.18;;;19.00;99.90;;;-144.05;87.77;56853.09;4996053;28;20377;-85
2023/06/20 04:20:12;;;;;;;11.75;10.00;;;19.00;99.90;;;-144.05;88.16;56844.59;4996716;28;20037;-83
2023/06/20 04:22:45;;;;;;;14.98;11.95;;;19.00;99.90;;;-144.05;88.62;56836.09;4996244;28;20396;-84
2023/06/20 04:25:13;;;;;;;14.25;12.75;;;19.00;99.90;;;-144.05;89.41;56865.81;4996224;28;20439;-80
2023/06/20 04:27:39;;;;;;;13.88;12.52;;;19.10;99.90;;;-144.05;90.27;56850.97;4997926;28;20270;-85
2023/06/20 04:30:06;;;;;;;15.30;13.02;;;19.00;99.90;;;-144.05;90.69;56848.84;4997860;28;20488;-84
2023/06/20 04:32:34;;;;;;;14.98;12.23;;;19.00;99.90;;;-144.05;90.73;56833.97;4995874;28;20558;-83
2023/06/20 04:35:00;;;;;;;17.52;14.02;;;19.00;99.90;;;-144.05;90.37;56844.59;4998557;28;20447;-84
2023/06/20 04:37:29;;;;;;;17.40;14.80;;;19.00;99.90;;;-144.05;90.59;56838.22;5008248;28;20044;-81
2023/06/20 04:39:57;;;;;;;17.48;13.43;;;19.10;99.90;;;-144.05;91.06;56840.34;5017502;28;20090;-83
2023/06/20 04:42:23;;;;;;;20.90;13.13;;;19.20;99.90;;;-144.05;91.60;56848.84;5001634;28;20518;-84
2023/06/20 04:44:49;;;;;;;15.07;13.35;;;19.30;99.90;;;-144.05;91.81;56833.97;5002194;28;20060;-85
2023/06/20 04:47:16;;;;;;;12.55;11.07;;;19.40;99.90;;;-144.05;92.11;56848.84;5001716;28;20026;-84
2023/06/20 04:49:43;;;;;;;14.10;12.65;;;19.40;99.90;;;-144.05;92.12;56848.84;4998671;28;20128;-84
2023/06/20 04:52:09;;;;;;;14.18;11.55;;;19.50;99.90;;;-144.05;92.12;56838.22;4999000;28;20076;-86
2023/06/20 04:54:35;;;;;;;12.05;10.85;;;19.60;99.90;;;-144.05;91.81;56840.34;4998792;28;20072;-85
2023/06/20 04:57:02;;;;;;;13.10;11.65;;;19.70;99.90;;;-144.05;91.68;56859.47;5000007;28;20026;-83
2023/06/20 04:59:28;;;;;;;11.70;10.50;;;19.80;99.90;;;-144.05;91.74;56857.34;5002043;28;20026;-84
2023/06/20 05:01:55;;;;;;;13.45;11.05;;;19.90;99.90;;;-144.05;91.57;56865.81;4998394;28;20037;-83
2023/06/20 05:04:22;;;;;;;16.52;13.68;;;19.80;99.90;;;-144.05;91.33;56857.34;5000005;28;20495;-84
2023/06/20 05:06:48;;;;;;;14.85;13.43;;;19.80;99.90;;;-144.05;90.94;56859.47;5000783;28;20082;-84
2023/06/20 05:09:14;;;;;;;13.52;12.13;;;19.80;99.90;;;-144.05;90.98;56848.84;4999076;28;20459;-84
2023/06/20 05:11:40;;;;;;;13.60;12.25;;;19.90;99.90;;;-144.05;90.67;56838.22;4998584;28;20037;-84
2023/06/20 05:14:06;;;;;;;14.18;12.68;;;19.90;99.90;;;-144.05;90.27;56853.09;5001316;28;20446;-83
2023/06/20 05:16:32;;;;;;;14.35;12.85;;;19.90;99.90;;;-144.05;90.32;56859.47;5001436;28;20034;-82
2023/06/20 05:18:58;;;;;;;13.73;11.77;;;19.90;99.90;;;-144.05;89.67;56848.84;5012184;28;20084;-80
2023/06/20 05:21:24;;;;;;;13.07;11.45;;;19.80;99.90;;;-144.05;89.33;56848.84;5011337;28;20034;-79
2023/06/20 05:23:49;;;;;;;11.45;10.23;;;19.80;99.90;;;-144.05;89.58;56857.34;5012514;28;20471;-81
2023/06/20 05:26:15;;;;;;;16.48;11.57;;;20.00;99.90;;;-144.05;89.27;56870.06;5013982;28;20030;-80
2023/06/20 05:28:41;;;;;;;16.50;12.75;;;20.10;99.90;;;-144.05;89.08;56846.72;5012831;28;20026;-81
2023/06/20 05:31:10;;;;;;;13.40;12.02;;;20.10;99.90;;;-144.05;89.14;56850.97;5006700;28;20053;-83
2023/06/20 05:33:36;;;;;;;12.48;11.18;;;20.20;99.90;;;-144.05;89.32;56872.19;4999552;28;20026;-83
2023/06/20 05:36:02;;;;;;;18.88;12.55;;;20.20;99.90;;;-144.05;89.21;56872.19;4999563;28;20074;-83
2023/06/20 05:38:31;;;;;;;12.48;10.65;;;20.20;99.90;;;-144.05;89.16;56857.34;4997712;28;20041;-85
2023/06/20 05:41:00;;;;;;;11.38;10.18;;;20.30;99.90;;;-144.05;89.18;56863.69;4998946;28;20109;-83
2023/06/20 05:43:26;;;;;;;12.93;10.27;;;20.30;99.90;;;-144.05;89.10;56850.97;4999108;28;20019;-82
2023/06/20 05:45:52;;;;;;;10.73;9.63;;;20.40;99.90;;;-144.05;88.68;56872.19;5002740;28;20031;-83
2023/06/20 05:48:18;;;;;;;15.20;12.32;;;20.50;99.90;;;-144.05;87.95;56870.06;4998266;28;20030;-81
2023/06/20 05:50:44;;;;;;;8.00;6.97;;;20.60;99.90;;;-144.05;80.82;56863.69;5000728;28;20026;-85
2023/06/20 05:53:10;;;;;;;11.35;8.82;;;20.40;99.90;;;-144.05;81.56;56848.84;5000047;28;20033;-86
2023/06/20 05:55:36;;;;;;;11.52;7.57;;;20.50;99.90;;;-144.05;79.67;56887.06;4998723;28;20038;-84
2023/06/20 05:58:02;;;;;;;9.25;6.45;;;20.60;99.90;;;-144.05;79.69;56889.19;5014664;28;20453;-82
2023/06/20 06:00:28;;;;;;;10.95;6.60;;;20.60;99.90;;;-144.05;78.87;56853.09;4998583;28;20081;-81
2023/06/20 06:02:55;;;;;;;7.85;6.38;;;20.60;99.90;;;-144.05;79.78;56895.56;4999410;28;20026;-86
2023/06/20 06:05:21;;;;;;;11.43;7.68;;;20.70;99.90;;;-144.05;80.30;56872.19;4998091;28;20026;-84
2023/06/20 06:07:47;;;;;;;7.50;6.18;;;20.80;99.90;;;-144.05;80.32;56872.19;5013997;28;20175;-83
2023/06/20 06:10:13;;;;;;;6.40;5.30;;;20.80;99.90;;;-144.05;79.15;56850.97;4996462;28;20030;-81
2023/06/20 06:12:40;;;;;;;6.78;5.60;;;20.80;99.90;;;-144.05;78.01;56865.81;5013664;28;20096;-82
2023/06/20 06:15:08;;;;;;;8.63;5.90;;;20.80;99.90;;;-144.05;77.24;56878.56;4997080;28;20062;-81
2023/06/20 06:17:34;;;;;;;8.45;5.78;;;20.90;99.90;;;-144.05;75.43;56865.81;5012857;28;20050;-82
2023/06/20 06:20:00;;;;;;;7.70;5.82;;;21.00;99.90;;;-144.05;72.98;56880.69;4996941;28;20503;-80
2023/06/20 06:22:26;;;;;;;7.28;5.65;;;21.10;99.90;;;-144.05;72.01;56882.81;5012235;28;20058;-82
2023/06/20 06:24:52;;;;;;;6.93;5.50;;;21.30;99.90;;;-144.05;72.19;56874.31;5013074;28;20117;-81
2023/06/20 06:27:17;;;;;;;8.18;6.18;;;21.30;99.90;;;-144.05;75.00;56853.09;4996076;28;20057;-81
2023/06/20 06:29:44;;;;;;;9.18;6.55;;;21.40;99.90;;;-144.05;75.31;56870.06;4997655;28;20026;-80
2023/06/20 06:32:15;;;;;;;8.73;6.10;;;21.40;99.90;;;-144.05;75.75;56870.06;5012793;28;20030;-84
2023/06/20 06:34:41;;;;;;;7.93;5.85;;;21.40;99.90;;;-144.05;76.49;56887.06;5009892;28;20092;-76
2023/06/20 06:37:09;;;;;;;7.93;5.78;;;21.50;99.90;;;-144.05;71.38;56865.81;4994586;28;20057;-77
2023/06/20 06:39:36;;;;;;;7.97;5.35;;;21.50;99.90;;;-144.05;69.03;56893.44;4993559;28;20067;-78
2023/06/20 06:42:03;;;;;;;10.18;5.35;;;21.60;99.90;;;-144.05;69.31;56870.06;4994257;28;20046;-76
2023/06/20 06:44:29;;;;;;;7.72;5.80;;;21.60;99.90;;;-144.05;69.43;56874.31;4994124;28;20105;-78
2023/06/20 06:46:54;;;;;;;7.90;5.50;;;21.70;99.90;;;-144.05;69.40;56884.94;4994327;28;20058;-77
2023/06/20 06:49:20;;;;;;;7.53;4.88;;;21.60;99.90;;;-144.05;68.84;56880.69;4995764;28;20063;-76
2023/06/20 06:51:46;;;;;;;6.88;5.72;;;21.60;99.90;;;-144.05;70.41;56878.56;4993165;28;20129;-76
2023/06/20 06:54:12;;;;;;;9.07;6.40;;;21.50;99.90;;;-144.05;71.24;56891.31;5009673;28;20129;-75
2023/06/20 06:56:38;;;;;;;8.10;5.43;;;21.40;99.90;;;-144.05;71.11;56865.81;4999662;28;20026;-76
2023/06/20 06:59:04;;;;;;;8.27;5.63;;;21.30;99.90;;;-144.05;70.73;56895.56;5003952;28;20034;-75
2023/06/20 07:01:30;;;;;;;7.35;5.07;;;21.30;99.90;;;-144.05;69.21;56870.06;4995635;28;20037;-81
2023/06/20 07:03:56;;;;;;;7.03;5.07;;;21.20;99.90;;;-144.05;69.23;56893.44;4997548;28;20033;-81
2023/06/20 07:06:22;;;;;;;7.25;5.45;;;21.30;99.90;;;-144.05;71.15;56884.94;4996477;28;20076;-79
2023/06/20 07:08:48;;;;;;;6.88;4.90;;;21.40;99.90;;;-144.05;71.52;56887.06;4995127;28;20037;-79
2023/06/20 07:11:14;;;;;;;7.03;5.13;;;21.50;99.90;;;-144.05;71.00;56912.56;4996627;28;20030;-81
2023/06/20 07:13:40;;;;;;;9.23;5.32;;;21.70;99.90;;;-144.05;68.49;56891.31;4998219;28;20058;-82
2023/06/20 07:16:06;;;;;;;7.20;4.53;;;21.90;99.90;;;-144.05;67.51;56906.19;4997768;28;20527;-83
2023/06/20 07:18:32;;;;;;;10.73;5.00;;;22.20;99.90;;;-144.05;65.29;56904.06;4996646;28;20073;-83
2023/06/20 07:20:59;;;;;;;9.82;5.38;;;22.60;99.90;;;-144.05;63.34;56893.44;4997837;28;20037;-79
2023/06/20 07:23:25;;;;;;;8.25;5.20;;;23.00;99.90;;;-144.05;60.33;56948.66;5013853;28;20026;-80
2023/06/20 07:25:51;;;;;;;7.60;5.13;;;23.50;99.90;;;-144.05;58.23;56944.41;5013885;28;20061;-79
2023/06/20 07:28:17;;;;;;;9.98;4.85;;;23.90;99.90;;;-144.05;56.49;56935.91;5000636;28;20031;-81
2023/06/20 07:30:43;;;;;;;7.65;4.68;;;24.20;99.90;;;-144.05;56.38;56931.66;5002559;28;20049;-79
2023/06/20 07:33:12;;;;;;;6.57;4.63;;;24.30;99.90;;;-144.05;56.27;56944.41;4998467;28;20033;-78
2023/06/20 07:35:37;;;;;;;5.22;4.50;;;24.50;99.90;;;-144.05;56.19;56946.53;4998568;28;20034;-78
2023/06/20 07:38:03;;;;;;;5.72;4.10;;;24.90;99.90;;;-144.05;55.29;56974.16;4996539;28;20093;-79
2023/06/20 07:40:29;;;;;;;6.70;4.75;;;25.20;99.90;;;-144.05;53.93;56980.53;5014252;28;20031;-79
2023/06/20 07:42:55;;;;;;;10.75;4.95;;;25.50;99.90;;;-144.05;52.70;56969.91;5014916;28;20412;-80
2023/06/20 07:45:21;;;;;;;5.53;3.97;;;25.30;99.90;;;-144.05;52.89;56948.66;4997515;28;20022;-80
2023/06/20 07:47:47;;;;;;;7.55;4.95;;;25.20;99.90;;;-144.05;52.02;56995.38;5013039;28;20030;-79
2023/06/20 07:50:13;;;;;;;8.43;4.82;;;25.50;99.90;;;-144.05;51.78;56984.78;4998465;28;20022;-80
2023/06/20 07:52:40;;;;;;;6.55;4.60;;;25.90;99.90;;;-144.05;50.56;57008.13;4997848;28;20041;-82
2023/06/20 07:55:06;;;;;;;6.20;4.00;;;26.10;99.90;;;-144.05;49.69;57033.63;4997392;28;20034;-80
2023/06/20 07:57:32;;;;;;;6.75;5.32;;;26.60;99.90;;;-144.05;49.20;57033.63;4996882;28;20030;-81
2023/06/20 07:59:58;;;;;;;10.20;5.32;;;27.00;99.90;;;-144.05;47.32;57027.25;4998100;28;20041;-81
2023/06/20 08:02:24;;;;;;;10.35;5.55;;;27.10;99.90;;;-144.05;46.61;57040.00;4999777;28;20555;-79
2023/06/20 08:04:50;;;;;;;11.27;5.40;;;27.20;99.90;;;-144.05;47.06;57042.13;4996719;28;20026;-81
2023/06/20 08:07:16;;;;;;;10.10;5.60;;;27.30;99.90;;;-144.05;46.26;57040.00;4997183;28;20080;-78
2023/06/20 08:09:43;;;;;;;9.18;5.18;;;27.40;99.90;;;-144.05;46.93;57067.59;4996820;28;20088;-79
2023/06/20 08:12:10;;;;;;;7.85;4.63;;;27.30;99.90;;;-144.05;45.74;57048.50;5012728;28;20404;-83
2023/06/20 08:14:37;;;;;;;8.73;4.80;;;27.30;99.90;;;-144.05;46.50;57031.50;5013712;28;20468;-80
2023/06/20 08:17:03;;;;;;;7.43;4.65;;;26.90;99.90;;;-144.05;46.90;57014.50;4996604;28;20127;-80
2023/06/20 08:19:29;;;;;;;6.78;4.50;;;27.10;99.90;;;-144.05;46.20;57037.88;4996855;28;20518;-83
2023/06/20 08:21:55;;;;;;;6.55;4.63;;;27.40;99.90;;;-144.05;45.26;57044.25;4998484;28;20042;-79
2023/06/20 08:24:21;;;;;;;6.38;4.47;;;27.60;99.90;;;-144.05;45.51;57063.34;4998188;28;20038;-78
2023/06/20 08:26:47;;;;;;;5.45;4.30;;;27.60;99.90;;;-144.05;44.86;57067.59;4997298;28;20038;-79
2023/06/20 08:29:13;;;;;;;5.63;4.00;;;27.70;99.90;;;-144.05;45.70;57073.97;4998616;28;20396;-82
2023/06/20 08:31:39;;;;;;;6.82;4.63;;;27.90;99.90;;;-144.05;45.26;57086.72;4997681;28;20042;-79
2023/06/20 08:34:06;;;;;;;4.95;4.20;;;28.00;99.90;;;-144.05;45.28;57071.84;4997529;28;20523;-79
2023/06/20 08:36:34;;;;;;;7.97;4.57;;;28.00;99.90;;;-144.05;45.03;57101.59;4997797;28;20506;-81
2023/06/20 08:39:01;;;;;;;5.80;4.53;;;28.10;99.90;;;-144.05;45.55;57084.59;4996421;28;20062;-80
2023/06/20 08:41:28;;;;;;;5.70;3.90;;;28.00;99.90;;;-144.05;45.71;57056.97;5011602;28;20555;-81
2023/06/20 08:43:54;;;;;;;5.20;4.65;;;27.70;99.90;;;-144.05;44.85;57095.22;4997050;28;20041;-79
2023/06/20 08:46:24;;;;;;;5.72;4.72;;;27.80;99.90;;;-144.05;45.71;57067.59;5011529;28;20033;-80
2023/06/20 08:48:51;;;;;;;6.45;4.68;;;28.10;99.90;;;-144.05;44.38;57069.72;5012071;28;20602;-81
2023/06/20 08:51:21;;;;;;;4.75;4.25;;;28.20;99.90;;;-144.05;44.09;57073.97;4996735;28;20492;-80
2023/06/20 08:53:50;;;;;;;5.88;4.00;;;28.10;99.90;;;-144.05;43.84;57086.72;4996418;28;20037;-81
2023/06/20 08:56:19;;;;;;;6.30;4.70;;;28.40;99.90;;;-144.05;42.43;57095.22;4997282;28;20412;-79
2023/06/20 08:58:45;;;;;;;5.57;4.38;;;28.60;99.90;;;-144.05;42.55;57086.72;5010980;28;20468;-80
2023/06/20 09:01:11;;;;;;;6.38;4.38;;;28.50;99.90;;;-144.05;43.03;57105.84;4996491;28;20034;-77
2023/06/20 09:03:37;;;;;;;5.43;4.45;;;28.60;99.90;;;-144.05;42.57;57122.84;4996942;28;20030;-80
2023/06/20 09:06:06;;;;;;;7.07;4.13;;;28.70;99.90;;;-144.05;41.60;57116.47;4998592;28;20210;-83
2023/06/20 09:08:43;;;;;;;5.95;3.90;;;28.90;99.90;;;-144.05;42.41;57137.69;4998164;28;20105;-80
2023/06/20 09:11:11;;;;;;;5.35;4.35;;;29.10;99.90;;;-144.05;40.72;57131.31;4997083;28;20583;-79
2023/06/20 09:13:38;;;;;;;6.18;3.88;;;29.10;99.90;;;-144.05;40.39;57150.44;4996430;28;20135;-80
2023/06/20 09:16:12;;;;;;;5.30;4.05;;;29.30;99.90;;;-144.05;39.64;57188.69;5006313;28;20034;-76
2023/06/20 09:18:40;;;;;;;4.60;3.85;;;29.70;99.90;;;-144.05;38.12;57146.19;4999259;28;20022;-79
2023/06/20 09:21:14;;;;;;;4.55;3.55;;;29.30;99.90;;;-144.05;39.22;57186.56;4996314;28;20092;-80
2023/06/20 09:23:40;;;;;;;4.97;3.60;;;29.20;99.90;;;-144.05;38.38;57154.69;5000485;28;20030;-78
2023/06/20 09:26:18;;;;;;;3.83;3.42;;;29.40;99.90;;;-144.05;39.67;57173.81;4998361;28;20073;-81
2023/06/20 09:28:44;;;;;;;5.20;3.88;;;29.70;99.90;;;-144.05;38.53;57161.06;4999121;28;20037;-81
2023/06/20 09:31:10;;;;;;;5.35;3.55;;;29.80;99.90;;;-144.05;38.45;57175.94;5000704;28;20034;-80
2023/06/20 09:33:38;;;;;;;4.47;3.75;;;29.80;99.90;;;-144.05;38.18;57141.94;5016480;28;20415;-77
2023/06/20 09:36:17;;;;;;;5.05;3.33;;;30.00;99.90;;;-144.05;38.22;57182.31;4999179;28;20386;-80
2023/06/20 09:38:55;;;;;;;7.43;3.72;;;29.70;99.90;;;-144.05;39.24;57135.56;4999275;28;20038;-79
2023/06/20 09:41:21;;;;;;;6.55;3.67;;;29.00;99.90;;;-144.05;39.34;57118.59;5000047;28;20093;-83
2023/06/20 09:43:47;;;;;;;5.78;3.50;;;29.30;99.90;;;-144.05;38.67;57156.81;4999887;28;20500;-80
2023/06/20 09:46:13;;;;;;;4.97;3.65;;;29.60;99.90;;;-144.05;37.88;57205.66;5014659;28;20026;-80
2023/06/20 09:48:40;;;;;;;4.07;3.67;;;29.80;99.90;;;-144.05;37.70;57163.19;4999724;28;20038;-82
2023/06/20 09:51:09;;;;;;;4.32;3.92;;;29.90;99.70;;;-144.05;37.13;57171.69;4998874;28;20033;-85
2023/06/20 09:54:05;;;;;;;4.80;3.70;;;30.10;98.80;;;-144.05;37.89;57146.19;5000007;28;20042;-82
2023/06/20 09:56:49;;;;;;;5.32;3.45;;;30.20;99.50;;;-144.05;37.15;57178.06;5013826;28;20041;-82
2023/06/20 09:59:16;;;;;;;4.55;2.95;;;30.30;98.60;;;-144.05;36.30;57209.91;5014293;28;20034;-81
2023/06/20 10:01:43;;;;;;;4.40;3.67;;;30.40;97.80;;;-144.05;37.76;57167.44;5016222;28;20030;-82
2023/06/20 10:04:12;;;;;;;3.22;2.92;;;30.10;97.60;;;-144.05;37.67;57154.69;5015258;28;20030;-83
2023/06/20 10:06:40;;;;;;;5.30;3.17;;;29.90;98.30;;;-144.05;36.88;57175.94;4999431;28;20538;-74